Time;durP1;ratioP1;P1;durP2;ratioP2;P2;SDS_P1;SDS_P2;PMS_P1;PMS_P2;Temp;Humidity;BMP_temperature;BMP_pressure;BME280_temperature;BME280_humidity;BME280_pressure;Samples;Min_cycle;Max_cycle;Signal;HPM_P1;HPM_P2
2022/03/04 00:00:18;;;;;;;57.20;21.50;;;;;;;-1.46;100.00;96920.03;10492895;28;20226;-61
2022/03/04 00:05:19;;;;;;;59.70;23.03;;;;;;;-1.44;100.00;96907.09;10493786;28;20211;-58
2022/03/04 00:10:19;;;;;;;59.53;21.50;;;;;;;-1.52;100.00;96907.50;10486381;28;20198;-60
2022/03/04 00:15:21;;;;;;;58.20;21.30;;;;;;;-1.48;100.00;96909.00;10486943;28;20305;-58
2022/03/04 00:20:21;;;;;;;57.77;20.13;;;;;;;-1.44;100.00;96912.25;10489001;28;20198;-61
2022/03/04 00:25:21;;;;;;;51.33;20.07;;;;;;;-1.42;100.00;96909.59;10493185;28;20568;-61
2022/03/04 00:30:22;;;;;;;54.83;20.70;;;;;;;-1.27;100.00;96919.94;10492723;28;20195;-60
2022/03/04 00:35:22;;;;;;;48.43;19.60;;;;;;;-1.34;100.00;96912.63;10492880;28;20298;-59
2022/03/04 00:40:23;;;;;;;50.60;19.97;;;;;;;-1.27;100.00;96916.56;10492755;28;20182;-59
2022/03/04 00:45:23;;;;;;;51.50;19.73;;;;;;;-1.24;100.00;96900.97;10492273;28;20203;-61
2022/03/04 00:50:24;;;;;;;51.17;20.57;;;;;;;-1.26;100.00;96910.50;10499917;28;20566;-60
2022/03/04 00:55:24;;;;;;;55.77;20.60;;;;;;;-1.23;100.00;96917.22;10500429;28;20646;-60
2022/03/04 01:00:25;;;;;;;58.47;20.63;;;;;;;-1.15;100.00;96915.06;10500184;28;20615;-61
2022/03/04 01:05:25;;;;;;;60.90;22.90;;;;;;;-1.09;100.00;96917.34;10500373;28;20214;-62
2022/03/04 01:10:25;;;;;;;71.47;23.23;;;;;;;-1.15;100.00;96917.66;10501305;28;20278;-61
2022/03/04 01:15:26;;;;;;;67.20;22.93;;;;;;;-1.05;100.00;96910.31;10499798;28;20791;-59
2022/03/04 01:20:26;;;;;;;73.33;23.97;;;;;;;-1.22;100.00;96906.88;10499354;28;20215;-59
2022/03/04 01:25:27;;;;;;;67.97;23.00;;;;;;;-1.22;100.00;96904.28;10499701;28;20272;-60
2022/03/04 01:30:27;;;;;;;71.27;24.90;;;;;;;-1.32;100.00;96903.94;10499119;28;20719;-58
2022/03/04 01:35:29;;;;;;;69.07;24.63;;;;;;;-1.37;100.00;96897.38;10499016;28;20272;-56
2022/03/04 01:40:29;;;;;;;80.70;26.33;;;;;;;-1.35;100.00;96895.53;10498686;28;20231;-61
2022/03/04 01:45:30;;;;;;;75.90;25.13;;;;;;;-1.35;100.00;96898.13;10498460;28;20207;-61
2022/03/04 01:50:30;;;;;;;72.83;23.67;;;;;;;-1.31;100.00;96903.00;10498607;28;20249;-59
2022/03/04 01:55:30;;;;;;;78.10;24.80;;;;;;;-1.32;100.00;96892.81;10498175;28;20207;-59
2022/03/04 02:00:31;;;;;;;89.73;26.33;;;;;;;-1.35;100.00;96901.50;10496486;28;20219;-56
2022/03/04 02:05:31;;;;;;;89.63;27.30;;;;;;;-1.37;100.00;96892.22;10497706;28;20293;-61
2022/03/04 02:10:32;;;;;;;90.87;27.77;;;;;;;-1.37;100.00;96892.22;10497676;28;20194;-59
2022/03/04 02:15:32;;;;;;;94.70;27.77;;;;;;;-1.42;100.00;96899.31;10497434;28;20242;-60
2022/03/04 02:20:33;;;;;;;84.57;27.73;;;;;;;-1.31;100.00;96892.75;10497256;28;20218;-60
2022/03/04 02:25:33;;;;;;;109.87;30.40;;;;;;;-1.28;100.00;96896.91;10479218;28;20223;-59
2022/03/04 02:30:34;;;;;;;100.00;29.30;;;;;;;-1.18;100.00;96892.94;10496853;28;20184;-59
2022/03/04 02:35:35;;;;;;;106.77;31.87;;;;;;;-1.30;100.00;96889.25;10496757;28;20772;-61
2022/03/04 02:40:36;;;;;;;94.37;29.97;;;;;;;-1.32;100.00;96895.38;10496414;28;20761;-61
2022/03/04 02:45:36;;;;;;;103.07;27.90;;;;;;;-1.29;100.00;96896.06;10496368;28;20207;-60
2022/03/04 02:50:37;;;;;;;88.73;25.30;;;;;;;-1.26;100.00;96895.06;10495946;28;20606;-55
2022/03/04 02:55:37;;;;;;;93.97;27.37;;;;;;;-1.39;100.00;96884.59;10495891;28;20582;-61
2022/03/04 03:00:38;;;;;;;86.23;27.07;;;;;;;-1.21;100.00;96885.41;10495278;28;20636;-60
2022/03/04 03:05:38;;;;;;;89.17;26.53;;;;;;;-1.29;100.00;96898.66;10495417;28;20214;-58
2022/03/04 03:10:38;;;;;;;89.87;26.17;;;;;;;-1.42;100.00;96889.03;10494407;28;20183;-59
2022/03/04 03:15:39;;;;;;;92.33;27.13;;;;;;;-1.41;100.00;96885.56;10494819;28;20322;-60
2022/03/04 03:20:39;;;;;;;93.10;24.03;;;;;;;-1.34;100.00;96879.22;10494920;28;20218;-61
2022/03/04 03:25:39;;;;;;;77.07;23.23;;;;;;;-1.26;100.00;96880.50;10494699;28;20656;-61
2022/03/04 03:30:40;;;;;;;71.67;22.73;;;;;;;-1.40;100.00;96884.69;10494673;28;20569;-61
2022/03/04 03:35:40;;;;;;;63.00;22.13;;;;;;;-1.45;100.00;96883.16;10494301;28;20207;-61
2022/03/04 03:40:41;;;;;;;67.30;22.03;;;;;;;-1.56;100.00;96887.19;10493942;28;20211;-61
2022/03/04 03:45:41;;;;;;;63.17;22.80;;;;;;;-1.45;100.00;96896.00;10494065;28;20276;-60
2022/03/04 03:50:42;;;;;;;60.57;22.60;;;;;;;-1.39;100.00;96884.59;10493604;28;20248;-61
2022/03/04 03:55:42;;;;;;;73.83;23.27;;;;;;;-1.33;100.00;96893.72;10493936;28;20297;-61
2022/03/04 04:00:43;;;;;;;66.37;22.27;;;;;;;-1.37;100.00;96892.22;10492949;28;20219;-61
2022/03/04 04:05:44;;;;;;;80.23;25.97;;;;;;;-1.54;100.00;96890.53;10493204;28;20253;-61
2022/03/04 04:10:44;;;;;;;74.60;25.70;;;;;;;-1.59;100.00;96889.91;10493327;28;20187;-59
2022/03/04 04:15:44;;;;;;;67.17;23.60;;;;;;;-1.48;100.00;96891.03;10492849;28;20763;-61
2022/03/04 04:20:45;;;;;;;92.53;25.20;;;;;;;-1.46;100.00;96894.34;10492928;28;20223;-60
2022/03/04 04:25:45;;;;;;;71.50;23.67;;;;;;;-1.59;100.00;96903.59;10492973;28;20290;-61
2022/03/04 04:30:45;;;;;;;81.27;26.33;;;;;;;-1.67;100.00;96908.25;10493131;28;20190;-60
2022/03/04 04:35:46;;;;;;;80.03;26.80;;;;;;;-1.55;100.00;96912.78;10492579;28;20207;-60
2022/03/04 04:40:46;;;;;;;90.60;28.00;;;;;;;-1.69;100.00;96910.09;10492224;28;20302;-61
2022/03/04 04:45:46;;;;;;;67.97;25.07;;;;;;;-1.68;100.00;96915.16;10492104;28;20211;-62
2022/03/04 04:50:47;;;;;;;84.07;25.10;;;;;;;-1.52;100.00;96919.53;10492212;28;20194;-61
2022/03/04 04:55:47;;;;;;;75.10;25.17;;;;;;;-1.57;100.00;96922.31;10492412;28;20207;-61
2022/03/04 05:00:53;;;;;;;67.00;24.70;;;;;;;-1.46;100.00;96916.63;10491840;28;20677;-61
2022/03/04 05:05:54;;;;;;;76.77;26.97;;;;;;;-1.60;100.00;96927.63;10492711;28;20239;-61
2022/03/04 05:10:55;;;;;;;73.03;26.53;;;;;;;-1.67;100.00;96921.97;10492609;28;20214;-60
2022/03/04 05:15:55;;;;;;;88.87;27.63;;;;;;;-1.71;100.00;96917.88;10486243;28;20238;-56
2022/03/04 05:20:56;;;;;;;99.20;28.13;;;;;;;-1.76;100.00;96922.41;10486952;28;20235;-60
2022/03/04 05:25:56;;;;;;;86.30;27.03;;;;;;;-1.74;100.00;96917.19;10488780;28;20297;-60
2022/03/04 05:30:56;;;;;;;97.67;27.53;;;;;;;-1.72;100.00;96917.94;10491184;28;20191;-60
2022/03/04 05:35:57;;;;;;;96.53;26.87;;;;;;;-1.80;100.00;96915.75;10497585;28;20213;-60
2022/03/04 05:40:57;;;;;;;110.77;24.70;;;;;;;-1.78;100.00;96920.81;10499567;28;20211;-60
2022/03/04 05:45:58;;;;;;;115.67;24.70;;;;;;;-1.83;100.00;96928.75;10498849;28;20276;-60
2022/03/04 05:50:58;;;;;;;126.93;24.77;;;;;;;-1.96;100.00;96925.94;10499066;28;20187;-59
2022/03/04 05:56:03;;;;;;;153.37;26.27;;;;;;;-2.11;100.00;96939.50;10498695;28;20218;-61
2022/03/04 06:01:06;;;;;;;195.00;28.40;;;;;;;-2.19;100.00;96942.41;10499605;28;20667;-60
2022/03/04 06:06:10;;;;;;;281.47;30.23;;;;;;;-2.24;100.00;96939.25;10499205;28;20576;-61
2022/03/04 06:11:10;;;;;;;133.73;25.53;;;;;;;-2.13;100.00;96949.00;10495483;28;20187;-60
2022/03/04 06:16:11;;;;;;;102.17;24.93;;;;;;;-2.16;100.00;96952.53;10498380;28;20337;-60
2022/03/04 06:21:11;;;;;;;199.17;27.80;;;;;;;-2.19;100.00;96950.13;10498953;28;20241;-61
2022/03/04 06:26:11;;;;;;;129.27;26.47;;;;;;;-2.25;100.00;96964.09;10498044;28;20207;-61
2022/03/04 06:31:12;;;;;;;122.83;24.50;;;;;;;-2.10;100.00;96961.69;10498929;28;20260;-60
2022/03/04 06:36:15;;;;;;;135.50;26.03;;;;;;;-2.03;100.00;96968.22;10498003;28;20214;-60
2022/03/04 06:41:15;;;;;;;123.93;23.87;;;;;;;-2.10;100.00;96956.56;10498072;28;20624;-59
2022/03/04 06:46:16;;;;;;;77.27;21.97;;;;;;;-1.97;100.00;96958.47;10498127;28;20271;-58
2022/03/04 06:51:16;;;;;;;109.30;24.43;;;;;;;-2.00;100.00;96956.06;10497728;28;20618;-61
2022/03/04 06:56:17;;;;;;;85.23;23.60;;;;;;;-1.92;100.00;96960.81;10497651;28;20644;-61
2022/03/04 07:01:17;;;;;;;87.73;21.80;;;;;;;-1.91;100.00;96977.91;10475756;28;20640;-61
2022/03/04 07:06:19;;;;;;;56.03;19.30;;;;;;;-1.87;100.00;96960.59;10467020;28;20297;-60
2022/03/04 07:11:19;;;;;;;62.57;18.63;;;;;;;-1.85;100.00;96962.19;10490534;28;20200;-60
2022/03/04 07:16:20;;;;;;;55.17;17.67;;;;;;;-1.69;100.00;96964.84;10495552;28;20235;-61
2022/03/04 07:21:20;;;;;;;55.93;18.47;;;;;;;-1.64;100.00;96978.31;10495517;28;20265;-57
2022/03/04 07:26:21;;;;;;;51.60;16.97;;;;;;;-1.78;100.00;96978.13;10495280;28;20278;-60
2022/03/04 07:31:21;;;;;;;55.53;17.63;;;;;;;-1.94;100.00;96972.09;10495395;28;20193;-60
2022/03/04 07:36:21;;;;;;;42.00;15.40;;;;;;;-2.01;100.00;96982.63;10494864;28;20576;-59
2022/03/04 07:41:22;;;;;;;42.10;14.37;;;;;;;-2.01;100.00;96984.38;10494861;28;20591;-61
2022/03/04 07:46:22;;;;;;;46.10;14.73;;;;;;;-1.98;100.00;96981.66;10494589;28;20195;-61
2022/03/04 07:51:23;;;;;;;38.93;14.20;;;;;;;-1.75;100.00;96983.13;10494332;28;20217;-59
2022/03/04 07:56:23;;;;;;;34.93;13.63;;;;;;;-1.54;100.00;96986.38;10493396;28;20215;-60
2022/03/04 08:01:24;;;;;;;30.00;12.80;;;;;;;-1.46;100.00;96986.00;10485781;28;20219;-62
2022/03/04 08:06:24;;;;;;;34.23;13.83;;;;;;;-1.63;100.00;96991.97;10491917;28;20273;-60
2022/03/04 08:11:25;;;;;;;25.00;11.27;;;;;;;-1.52;100.00;96997.41;10489518;28;20203;-63
2022/03/04 08:16:29;;;;;;;37.57;13.70;;;;;;;-1.42;100.00;96995.25;10492180;28;20264;-61
2022/03/04 08:21:29;;;;;;;28.07;12.27;;;;;;;-1.39;100.00;96995.09;10491686;28;20284;-59
2022/03/04 08:26:30;;;;;;;25.83;12.00;;;;;;;-1.47;100.00;97000.59;10492108;28;20653;-61
2022/03/04 08:31:31;;;;;;;22.00;11.77;;;;;;;-1.46;100.00;97006.56;10491114;28;20669;-61
2022/03/04 08:36:32;;;;;;;21.93;10.73;;;;;;;-1.48;100.00;97008.41;10491781;28;20195;-62
2022/03/04 08:41:33;;;;;;;26.03;10.67;;;;;;;-1.30;100.00;97020.34;10492145;28;20223;-60
2022/03/04 08:46:35;;;;;;;24.23;10.87;;;;;;;-1.13;100.00;97008.41;10492158;28;20184;-60
2022/03/04 08:51:37;;;;;;;23.67;10.73;;;;;;;-1.26;100.00;97013.28;10491604;28;20562;-61
2022/03/04 08:56:38;;;;;;;33.90;15.43;;;;;;;-1.22;100.00;97009.69;10474015;28;20196;-61
2022/03/04 09:01:38;;;;;;;28.30;13.40;;;;;;;-1.08;100.00;97014.94;10468178;28;20211;-61
2022/03/04 09:06:38;;;;;;;43.80;21.03;;;;;;;-1.10;100.00;97018.53;10490879;28;20213;-61
2022/03/04 09:11:39;;;;;;;34.83;17.27;;;;;;;-0.87;100.00;97032.78;10498412;28;20254;-61
2022/03/04 09:16:39;;;;;;;35.67;16.07;;;;;;;-1.16;100.00;97047.94;10498291;28;20288;-59
2022/03/04 09:21:39;;;;;;;31.17;13.37;;;;;;;-1.19;100.00;97039.53;10498611;28;20223;-61
2022/03/04 09:26:40;;;;;;;33.63;15.80;;;;;;;-1.18;100.00;97041.19;10498764;28;20285;-61
2022/03/04 09:31:40;;;;;;;37.23;15.67;;;;;;;-1.14;100.00;97047.84;10498581;28;20192;-61
2022/03/04 09:36:41;;;;;;;36.53;16.53;;;;;;;-0.98;100.00;97051.34;10497177;28;20677;-60
2022/03/04 09:41:43;;;;;;;36.43;15.10;;;;;;;-1.16;100.00;97052.25;10498371;28;20230;-61
2022/03/04 09:46:44;;;;;;;39.23;16.50;;;;;;;-1.25;100.00;97050.94;10498000;28;20187;-61
2022/03/04 09:51:45;;;;;;;36.07;16.73;;;;;;;-1.35;100.00;97049.72;10498089;28;20217;-61
2022/03/04 09:56:45;;;;;;;27.77;13.70;;;;;;;-1.28;100.00;97051.09;10484549;28;20191;-61
2022/03/04 10:01:47;;;;;;;25.53;11.77;;;;;;;-1.30;100.00;97058.06;10480920;28;20309;-61
2022/03/04 10:06:49;;;;;;;30.60;11.80;;;;;;;-1.15;100.00;97057.31;10496324;28;20192;-62
2022/03/04 10:12:01;;;;;;;31.10;13.63;;;;;;;-1.27;100.00;97053.59;10495530;28;20223;-60
2022/03/04 10:17:02;;;;;;;33.43;15.67;;;;;;;-1.30;100.00;97052.94;10496509;28;20294;-60
2022/03/04 10:22:06;;;;;;;36.50;14.40;;;;;;;-1.02;100.00;97052.38;10496525;28;20321;-60
2022/03/04 10:27:10;;;;;;;32.47;13.17;;;;;;;-1.11;100.00;97058.81;10496315;28;20278;-60
2022/03/04 10:32:27;;;;;;;32.43;13.40;;;;;;;-1.30;100.00;97053.75;10496070;28;20242;-61
2022/03/04 10:37:43;;;;;;;34.03;14.17;;;;;;;-1.06;100.00;97052.63;10495848;28;20191;-62
2022/03/04 10:42:53;;;;;;;33.33;13.40;;;;;;;-1.01;100.00;97055.78;10494599;28;20230;-61
2022/03/04 10:47:56;;;;;;;34.23;14.10;;;;;;;-0.73;100.00;97058.63;10476076;28;20207;-61
2022/03/04 10:52:59;;;;;;;35.03;13.93;;;;;;;-1.04;100.00;97053.34;10473323;28;20210;-61
2022/03/04 10:58:01;;;;;;;44.00;16.17;;;;;;;-0.79;100.00;97048.66;10461410;28;20189;-62
2022/03/04 11:03:05;;;;;;;42.00;17.57;;;;;;;-0.87;100.00;97052.50;10455084;28;20226;-59
2022/03/04 11:08:06;;;;;;;38.93;15.37;;;;;;;-0.97;100.00;97055.53;10452672;28;20272;-61
2022/03/04 11:13:08;;;;;;;39.57;15.73;;;;;;;-0.85;100.00;97054.09;10459858;28;20239;-61
2022/03/04 11:18:13;;;;;;;35.93;15.30;;;;;;;-0.94;100.00;97052.81;10497803;28;20188;-59
2022/03/04 11:23:24;;;;;;;34.70;15.53;;;;;;;-0.86;100.00;97059.34;10493616;28;20219;-61
2022/03/04 11:28:36;;;;;;;45.43;16.30;;;;;;;-1.01;100.00;97053.22;10475935;28;20187;-62
2022/03/04 11:33:41;;;;;;;41.20;16.43;;;;;;;-0.90;100.00;97053.53;10494027;28;20219;-62
2022/03/04 11:38:46;;;;;;;41.93;14.40;;;;;;;-0.72;100.00;97075.75;10485605;28;20184;-62
2022/03/04 11:43:48;;;;;;;41.57;15.83;;;;;;;-0.73;100.00;97068.09;10466285;28;20276;-62
2022/03/04 11:49:28;;;;;;;48.43;15.20;;;;;;;-0.87;100.00;97073.09;10475045;28;20206;-63
2022/03/04 11:54:28;;;;;;;51.73;15.80;;;;;;;-0.77;100.00;97077.69;10492620;28;20264;-60
2022/03/04 11:59:29;;;;;;;49.13;15.97;;;;;;;-0.89;100.00;97075.72;10487716;28;20236;-61
2022/03/04 12:04:34;;;;;;;41.10;15.97;;;;;;;-1.02;100.00;97083.25;10451601;28;20306;-62
2022/03/04 12:09:35;;;;;;;50.70;16.63;;;;;;;-1.01;100.00;97076.34;10451741;28;20192;-62
2022/03/04 12:14:35;;;;;;;80.20;16.80;;;;;;;-1.28;100.00;97076.81;10455581;28;20257;-62
2022/03/04 12:19:36;;;;;;;41.97;16.30;;;;;;;-1.21;100.00;97083.31;10512003;22;20237;-65
2022/03/04 12:24:36;;;;;;;63.53;16.70;;;;;;;-1.35;100.00;97078.00;10488756;28;20234;-65
2022/03/04 12:29:42;;;;;;;54.10;15.33;;;;;;;-1.29;100.00;97075.97;10466772;28;20211;-65
2022/03/04 12:34:52;;;;;;;39.30;15.63;;;;;;;-1.10;100.00;97075.91;10450208;28;20214;-63
2022/03/04 12:39:53;;;;;;;45.40;14.83;;;;;;;-1.03;100.00;97073.03;10450214;28;20230;-63
2022/03/04 12:44:56;;;;;;;36.90;13.37;;;;;;;-0.88;100.00;97072.25;10456721;28;20220;-65
2022/03/04 12:49:57;;;;;;;36.47;14.53;;;;;;;-0.85;100.00;97069.53;10457877;28;20206;-63
2022/03/04 12:55:05;;;;;;;35.17;13.87;;;;;;;-0.93;100.00;97063.97;10440572;28;20183;-65
2022/03/04 13:00:06;;;;;;;37.00;15.40;;;;;;;-0.92;100.00;97063.88;10458002;28;20184;-64
2022/03/04 13:05:06;;;;;;;38.97;15.30;;;;;;;-0.90;100.00;97061.22;10458143;28;20223;-65
2022/03/04 13:10:07;;;;;;;41.07;16.67;;;;;;;-0.75;100.00;97059.59;10457341;28;20200;-64
2022/03/04 13:15:10;;;;;;;47.17;16.07;;;;;;;-0.88;100.00;97061.97;10457909;28;20238;-64
2022/03/04 13:20:10;;;;;;;41.60;15.27;;;;;;;-0.61;100.00;97058.94;10453635;28;20200;-63
2022/03/04 13:25:11;;;;;;;36.57;16.53;;;;;;;-0.59;100.00;97059.66;10456166;28;20219;-65
2022/03/04 13:30:11;;;;;;;33.27;14.47;;;;;;;-0.52;100.00;97060.19;10456899;28;20192;-63
2022/03/04 13:35:14;;;;;;;49.87;18.43;;;;;;;-0.76;100.00;97068.25;10456085;28;20192;-64
2022/03/04 13:40:19;;;;;;;36.30;16.20;;;;;;;-0.79;100.00;97066.66;10456665;28;20624;-64
2022/03/04 13:45:36;;;;;;;37.10;15.60;;;;;;;-0.77;100.00;97071.72;10456137;28;20728;-65
2022/03/04 13:50:46;;;;;;;38.53;16.93;;;;;;;-0.75;100.00;97075.03;10457847;28;20253;-62
2022/03/04 13:55:55;;;;;;;43.07;16.47;;;;;;;-0.91;100.00;97070.66;10496037;28;20207;-64
2022/03/04 14:00:58;;;;;;;50.40;16.83;;;;;;;-0.97;100.00;97070.16;10478051;28;20266;-63
2022/03/04 14:06:00;;;;;;;41.53;16.67;;;;;;;-0.92;100.00;97069.03;10495806;28;20223;-62
2022/03/04 14:11:04;;;;;;;40.53;15.73;;;;;;;-0.76;100.00;97071.66;10496292;28;21047;-64
2022/03/04 14:16:07;;;;;;;41.37;16.63;;;;;;;-0.72;100.00;97068.03;10496270;28;20251;-65
2022/03/04 14:21:09;;;;;;;37.17;15.57;;;;;;;-0.58;100.00;97069.06;10496609;28;20224;-65
2022/03/04 14:26:09;;;;;;;43.37;17.40;;;;;;;-0.66;100.00;97071.19;10494471;28;20709;-63
2022/03/04 14:31:10;;;;;;;44.00;17.07;;;;;;;-0.65;100.00;97068.53;10495848;28;20175;-64
2022/03/04 14:36:10;;;;;;;40.87;16.13;;;;;;;-0.68;100.00;97073.81;10495656;28;20325;-65
2022/03/04 14:41:11;;;;;;;45.27;17.97;;;;;;;-0.74;100.00;97081.84;10495302;28;20661;-65
2022/03/04 14:46:11;;;;;;;50.60;18.93;;;;;;;-0.84;100.00;97080.66;10495073;28;20298;-65
2022/03/04 14:51:11;;;;;;;41.67;17.07;;;;;;;-0.78;100.00;97075.19;10494901;28;20179;-64
2022/03/04 14:56:12;;;;;;;41.50;18.33;;;;;;;-0.73;100.00;97079.22;10493577;28;20794;-63
2022/03/04 15:01:12;;;;;;;44.93;16.87;;;;;;;-0.56;100.00;97077.53;10494121;28;20586;-63
2022/03/04 15:06:13;;;;;;;43.40;17.47;;;;;;;-0.58;100.00;97085.31;10472335;28;20601;-65
2022/03/04 15:11:13;;;;;;;48.30;19.60;;;;;;;-0.56;100.00;97088.63;10468800;28;20188;-63
2022/03/04 15:16:14;;;;;;;37.40;17.13;;;;;;;-0.35;100.00;97085.88;10491049;28;20267;-63
2022/03/04 15:21:14;;;;;;;40.87;18.13;;;;;;;-0.27;100.00;97080.34;10488731;28;20223;-62
2022/03/04 15:26:15;;;;;;;38.23;16.60;;;;;;;-0.27;100.00;97088.06;10487716;28;20207;-62
2022/03/04 15:31:15;;;;;;;30.40;15.97;;;;;;;-0.22;100.00;97084.31;10479996;28;20186;-62
2022/03/04 15:36:15;;;;;;;36.00;16.80;;;;;;;-0.17;100.00;97081.50;10476223;28;20576;-60
2022/03/04 15:41:16;;;;;;;31.80;14.63;;;;;;;-0.26;100.00;97087.97;10485539;28;20219;-62
2022/03/04 15:46:17;;;;;;;32.87;15.33;;;;;;;-0.28;100.00;97088.97;10485657;28;20269;-62
2022/03/04 15:51:18;;;;;;;34.20;15.87;;;;;;;-0.30;100.00;97085.66;10485847;28;20286;-64
2022/03/04 15:56:18;;;;;;;32.93;15.97;;;;;;;-0.35;100.00;97091.03;10485521;28;20219;-61
2022/03/04 16:01:18;;;;;;;31.73;14.23;;;;;;;-0.31;100.00;97089.13;10485659;28;20211;-63
2022/03/04 16:06:19;;;;;;;31.83;16.43;;;;;;;-0.26;100.00;97092.28;10487138;28;20273;-64
2022/03/04 16:11:19;;;;;;;32.60;15.67;;;;;;;-0.34;100.00;97089.28;10487832;28;20196;-62
2022/03/04 16:16:20;;;;;;;45.70;20.77;;;;;;;-0.49;100.00;97101.19;10489133;28;20288;-61
2022/03/04 16:21:21;;;;;;;40.77;17.37;;;;;;;-0.47;100.00;97097.63;10488137;28;20215;-63
2022/03/04 16:26:21;;;;;;;36.60;16.00;;;;;;;-0.45;100.00;97097.56;10487875;28;20199;-65
2022/03/04 16:31:22;;;;;;;39.70;18.67;;;;;;;-0.58;100.00;97093.03;10481201;28;20191;-62
2022/03/04 16:36:23;;;;;;;43.03;19.60;;;;;;;-0.40;100.00;97090.44;10457335;28;20256;-63
2022/03/04 16:41:23;;;;;;;41.97;19.57;;;;;;;-0.38;100.00;97094.59;10458900;28;20211;-63
2022/03/04 16:46:25;;;;;;;38.33;17.63;;;;;;;-0.50;100.00;97095.22;10488306;28;20290;-63
2022/03/04 16:51:25;;;;;;;37.37;17.20;;;;;;;-0.55;100.00;97099.78;10491774;28;20195;-63
2022/03/04 16:56:27;;;;;;;36.93;16.40;;;;;;;-0.60;100.00;97094.03;10490819;28;20705;-61
2022/03/04 17:01:27;;;;;;;34.20;17.80;;;;;;;-0.68;100.00;97086.69;10491260;28;20227;-64
2022/03/04 17:06:28;;;;;;;30.50;16.17;;;;;;;-0.77;100.00;97082.84;10459184;28;20222;-61
2022/03/04 17:11:28;;;;;;;38.20;18.47;;;;;;;-0.45;100.00;97095.81;10447372;28;20294;-63
2022/03/04 17:16:28;;;;;;;33.60;15.83;;;;;;;-0.41;100.00;97093.94;10451398;28;20261;-61
2022/03/04 17:21:29;;;;;;;37.87;16.33;;;;;;;-0.55;100.00;97102.34;10450250;28;20224;-64
2022/03/04 17:26:30;;;;;;;35.60;18.70;;;;;;;-0.99;100.00;97100.25;10448296;28;20208;-62
2022/03/04 17:31:30;;;;;;;38.13;16.83;;;;;;;-0.86;100.00;97101.31;10453498;28;20535;-63
2022/03/04 17:36:31;;;;;;;41.53;18.13;;;;;;;-0.81;100.00;97099.34;10457318;28;20636;-62
2022/03/04 17:41:31;;;;;;;42.00;17.43;;;;;;;-0.62;100.00;97106.13;10458323;28;20219;-61
2022/03/04 17:46:32;;;;;;;38.20;17.73;;;;;;;-1.10;100.00;97108.50;10458388;28;20231;-64
2022/03/04 17:51:35;;;;;;;41.10;17.67;;;;;;;-1.17;100.00;97113.09;10458044;28;20274;-63
2022/03/04 17:56:35;;;;;;;41.87;18.90;;;;;;;-1.20;100.00;97102.97;10457871;28;20227;-62
2022/03/04 18:01:36;;;;;;;37.60;19.07;;;;;;;-1.19;100.00;97111.53;10457794;28;20222;-62
2022/03/04 18:06:39;;;;;;;39.60;17.23;;;;;;;-0.79;100.00;97114.72;10457529;28;20243;-62
2022/03/04 18:11:39;;;;;;;36.57;16.70;;;;;;;-1.14;100.00;97114.69;10457368;28;20218;-61
2022/03/04 18:16:40;;;;;;;36.43;16.67;;;;;;;-1.09;100.00;97110.16;10493366;22;20714;-60
2022/03/04 18:21:40;;;;;;;311.33;133.53;;;;;;;-1.29;100.00;97106.81;10498136;28;20215;-57
2022/03/04 18:26:40;;;;;;;118.97;54.73;;;;;;;-1.71;100.00;97114.81;10497939;28;20211;-57
2022/03/04 18:31:45;;;;;;;64.37;31.00;;;;;;;-1.68;100.00;97114.66;10497137;28;20575;-58
2022/03/04 18:36:45;;;;;;;47.37;18.77;;;;;;;-2.01;100.00;97112.72;10497812;28;20211;-52
2022/03/04 18:41:45;;;;;;;40.77;17.97;;;;;;;-1.85;100.00;97123.97;10496602;28;20235;-58
2022/03/04 18:46:46;;;;;;;49.27;18.00;;;;;;;-2.31;100.00;97120.88;10497017;28;20222;-59
2022/03/04 18:51:46;;;;;;;62.87;18.87;;;;;;;-2.56;100.00;97134.78;10496446;28;20231;-55
2022/03/04 18:56:47;;;;;;;55.50;16.77;;;;;;;-2.53;100.00;97141.47;10495774;28;20225;-53
2022/03/04 19:01:54;;;;;;;32.70;15.77;;;;;;;-2.20;100.00;97131.50;10496209;28;20211;-54
2022/03/04 19:06:57;;;;;;;48.13;15.20;;;;;;;-2.07;100.00;97136.09;10495673;28;20214;-56
2022/03/04 19:11:57;;;;;;;39.70;15.63;;;;;;;-2.09;100.00;97127.63;10495743;28;20176;-58
2022/03/04 19:16:57;;;;;;;40.30;15.43;;;;;;;-2.08;100.00;97129.28;10506645;28;20317;-58
2022/03/04 19:21:58;;;;;;;36.30;14.90;;;;;;;-1.94;100.00;97132.09;10537046;28;20237;-55
2022/03/04 19:26:58;;;;;;;36.73;14.97;;;;;;;-1.88;100.00;97136.94;10537383;28;20210;-57
2022/03/04 19:31:59;;;;;;;34.17;16.53;;;;;;;-1.62;100.00;97140.88;10536463;28;20201;-58
2022/03/04 19:37:00;;;;;;;36.47;15.70;;;;;;;-1.89;100.00;97142.97;10537014;28;20213;-59
2022/03/04 19:42:00;;;;;;;32.53;15.27;;;;;;;-1.90;100.00;97140.47;10536617;28;20214;-56
2022/03/04 19:47:02;;;;;;;37.97;16.67;;;;;;;-1.78;100.00;97136.53;10533910;28;20297;-59
2022/03/04 19:52:02;;;;;;;46.63;18.30;;;;;;;-2.03;100.00;97138.47;10536255;28;20672;-58
2022/03/04 19:57:03;;;;;;;43.43;17.23;;;;;;;-2.22;100.00;97133.31;10536253;28;20210;-59
2022/03/04 20:02:04;;;;;;;45.63;17.97;;;;;;;-2.04;100.00;97144.47;10536046;28;20264;-59
2022/03/04 20:07:04;;;;;;;42.87;16.90;;;;;;;-1.97;100.00;97153.59;10535674;28;20294;-57
2022/03/04 20:12:06;;;;;;;43.17;19.00;;;;;;;-1.81;100.00;97143.47;10535413;28;20241;-59
2022/03/04 20:17:07;;;;;;;39.30;17.07;;;;;;;-1.93;100.00;97146.59;10534826;28;20242;-52
2022/03/04 20:22:07;;;;;;;32.97;15.60;;;;;;;-1.91;100.00;97139.66;10534846;28;20219;-54
2022/03/04 20:27:08;;;;;;;39.77;18.43;;;;;;;-1.91;100.00;97133.69;10534785;28;20210;-57
2022/03/04 20:32:08;;;;;;;32.57;15.33;;;;;;;-1.59;100.00;97139.94;10534558;28;20186;-57
2022/03/04 20:37:09;;;;;;;27.27;12.70;;;;;;;-1.50;100.00;97138.66;10534719;28;20305;-55
2022/03/04 20:42:09;;;;;;;32.50;13.90;;;;;;;-1.49;100.00;97141.13;10532279;28;20237;-54
2022/03/04 20:47:10;;;;;;;39.77;17.93;;;;;;;-1.42;100.00;97146.84;10534367;28;20301;-52
2022/03/04 20:52:10;;;;;;;31.47;15.13;;;;;;;-1.76;100.00;97152.69;10533290;28;20191;-57
2022/03/04 20:57:10;;;;;;;36.57;15.63;;;;;;;-1.69;100.00;97154.09;10510042;28;20253;-57
2022/03/04 21:02:11;;;;;;;31.73;14.43;;;;;;;-1.70;100.00;97157.53;10514663;28;20211;-59
2022/03/04 21:07:12;;;;;;;40.30;16.43;;;;;;;-1.73;100.00;97162.81;10518907;28;20895;-59
2022/03/04 21:12:12;;;;;;;38.70;18.03;;;;;;;-1.71;100.00;97161.84;10518248;28;20245;-58
2022/03/04 21:17:13;;;;;;;36.23;16.50;;;;;;;-1.72;100.00;97165.31;10515867;28;20254;-59
2022/03/04 21:22:13;;;;;;;37.00;18.40;;;;;;;-1.58;100.00;97156.97;10502017;28;20272;-56
2022/03/04 21:27:14;;;;;;;38.00;17.43;;;;;;;-1.58;100.00;97149.28;10499117;28;20692;-56
2022/03/04 21:32:14;;;;;;;41.00;16.67;;;;;;;-1.54;100.00;97150.81;10507925;28;20187;-59
2022/03/04 21:37:14;;;;;;;36.83;15.97;;;;;;;-1.29;100.00;97157.38;10541030;28;20275;-52
2022/03/04 21:42:15;;;;;;;35.60;14.63;;;;;;;-1.19;100.00;97157.78;10541015;28;20218;-57
2022/03/04 21:47:16;;;;;;;37.57;16.43;;;;;;;-1.33;100.00;97160.97;10540806;28;20297;-52
2022/03/04 21:52:16;;;;;;;32.63;14.93;;;;;;;-1.49;100.00;97159.13;10541012;28;20204;-58
2022/03/04 21:57:17;;;;;;;44.87;16.63;;;;;;;-1.26;100.00;97163.22;10540974;28;20207;-52
2022/03/04 22:02:17;;;;;;;44.53;16.80;;;;;;;-1.27;100.00;97160.72;10540753;28;20217;-57
2022/03/04 22:07:18;;;;;;;32.87;15.70;;;;;;;-1.59;100.00;97149.34;10540270;28;20279;-54
2022/03/04 22:12:18;;;;;;;31.43;15.80;;;;;;;-1.54;100.00;97153.38;10540381;28;20263;-58
2022/03/04 22:17:19;;;;;;;34.27;16.77;;;;;;;-1.48;100.00;97147.97;10538770;28;20265;-53
2022/03/04 22:22:19;;;;;;;40.43;16.63;;;;;;;-1.68;100.00;97140.34;10540056;28;20233;-57
2022/03/04 22:27:19;;;;;;;41.07;16.80;;;;;;;-1.79;100.00;97138.28;10539592;28;20222;-58
2022/03/04 22:32:20;;;;;;;38.23;15.50;;;;;;;-2.01;100.00;97133.25;10539592;28;20191;-59